createdAt,value
2022-12-28T00:02:13.250Z,9.60
2022-12-28T00:05:15.023Z,7.93
2022-12-28T00:08:16.639Z,6.60
2022-12-28T00:11:25.551Z,6.80
2022-12-28T00:14:30.206Z,6.93
2022-12-28T00:17:31.997Z,5.70
2022-12-28T00:20:33.759Z,6.20
2022-12-28T00:23:35.457Z,7.70
2022-12-28T00:26:37.125Z,10.37
2022-12-28T00:29:38.817Z,10.20
2022-12-28T00:32:40.522Z,10.27
2022-12-28T00:35:42.164Z,10.13
2022-12-28T00:38:44.048Z,8.93
2022-12-28T00:41:45.910Z,8.60
2022-12-28T00:44:47.614Z,12.43
2022-12-28T00:47:51.035Z,11.97
2022-12-28T00:50:52.758Z,12.80
2022-12-28T00:53:54.723Z,12.40
2022-12-28T00:56:56.293Z,8.57
2022-12-28T00:59:57.881Z,6.40
2022-12-28T01:02:59.585Z,7.77
2022-12-28T01:06:04.694Z,8.20
2022-12-28T01:09:06.320Z,8.53
2022-12-28T01:12:07.997Z,7.63
2022-12-28T01:15:10.561Z,7.50
2022-12-28T01:18:12.642Z,8.70
2022-12-28T01:21:16.165Z,6.73
2022-12-28T01:24:17.994Z,6.70
2022-12-28T01:27:19.881Z,6.50
2022-12-28T01:30:21.549Z,7.87
2022-12-28T01:33:23.094Z,6.43
2022-12-28T01:36:25.725Z,7.50
2022-12-28T01:39:27.455Z,8.93
2022-12-28T01:42:29.862Z,11.50
2022-12-28T01:45:31.688Z,7.97
2022-12-28T01:48:35.631Z,6.60
2022-12-28T01:51:44.057Z,9.60
2022-12-28T01:54:48.490Z,11.13
2022-12-28T01:57:59.012Z,12.73
2022-12-28T02:01:00.890Z,14.67
2022-12-28T02:04:02.939Z,10.20
2022-12-28T02:07:04.678Z,10.10
2022-12-28T02:10:42.537Z,8.90
2022-12-28T02:13:28.212Z,8.57
2022-12-28T02:16:32.253Z,9.23
2022-12-28T02:19:40.557Z,9.30
2022-12-28T02:22:52.110Z,8.50
2022-12-28T02:26:15.344Z,7.13
2022-12-28T02:29:19.917Z,8.43
2022-12-28T02:32:40.636Z,9.87
2022-12-28T02:35:52.109Z,7.53
2022-12-28T02:38:55.750Z,8.83
2022-12-28T02:41:57.510Z,8.83
2022-12-28T02:45:17.730Z,8.43
2022-12-28T02:48:37.931Z,7.83
2022-12-28T02:52:03.771Z,11.57
2022-12-28T02:55:33.336Z,13.70
2022-12-28T02:58:35.119Z,7.97
2022-12-28T03:01:40.402Z,13.03
2022-12-28T03:04:55.599Z,13.23
2022-12-28T03:08:20.040Z,9.97
2022-12-28T03:11:26.361Z,12.07
2022-12-28T03:14:53.315Z,12.97
2022-12-28T03:18:34.841Z,10.73
2022-12-28T03:21:55.956Z,14.00
2022-12-28T03:25:18.031Z,17.57
2022-12-28T03:28:40.100Z,17.77
2022-12-28T03:31:42.093Z,13.73
2022-12-28T03:34:47.039Z,15.37
2022-12-28T03:38:00.172Z,16.07
2022-12-28T03:41:14.112Z,13.57
2022-12-28T03:44:26.816Z,15.47
2022-12-28T03:47:29.430Z,15.47
2022-12-28T03:50:32.116Z,14.70
2022-12-28T03:53:52.404Z,21.53
2022-12-28T03:56:56.638Z,21.67
2022-12-28T04:00:04.279Z,19.73
2022-12-28T04:03:17.319Z,20.00
2022-12-28T04:06:20.513Z,19.77
2022-12-28T04:09:22.520Z,18.30
2022-12-28T04:12:24.904Z,15.67
2022-12-28T04:16:02.017Z,15.30
2022-12-28T04:19:04.982Z,15.43
2022-12-28T04:22:06.801Z,16.07
2022-12-28T04:25:09.986Z,19.03
2022-12-28T04:28:11.642Z,21.47
2022-12-28T04:31:45.802Z,20.87
2022-12-28T04:34:51.697Z,19.97
2022-12-28T04:37:53.731Z,20.00
2022-12-28T04:40:55.327Z,16.97
2022-12-28T04:43:57.287Z,16.33
2022-12-28T04:46:58.905Z,16.90
2022-12-28T04:50:00.683Z,15.53
2022-12-28T04:53:02.300Z,34.47
2022-12-28T04:56:04.812Z,33.30
2022-12-28T04:59:06.469Z,22.10
2022-12-28T05:02:08.183Z,27.90
2022-12-28T05:05:09.903Z,29.80
2022-12-28T05:08:11.477Z,32.30
2022-12-28T05:11:14.319Z,32.13
2022-12-28T05:14:15.954Z,34.37
2022-12-28T05:17:17.689Z,39.37
2022-12-28T05:20:20.658Z,37.67
2022-12-28T05:23:22.345Z,37.47
2022-12-28T05:26:25.663Z,32.23
2022-12-28T05:29:27.215Z,40.27
2022-12-28T05:32:28.807Z,37.63
2022-12-28T05:35:30.434Z,30.10
2022-12-28T05:38:32.809Z,26.70
2022-12-28T05:41:34.475Z,39.07
2022-12-28T05:44:36.141Z,33.77
2022-12-28T05:47:37.902Z,41.67
2022-12-28T05:50:39.791Z,40.10
2022-12-28T05:53:41.940Z,44.93
2022-12-28T05:56:43.803Z,33.43
2022-12-28T05:59:45.351Z,30.50
2022-12-28T06:02:47.622Z,29.70
2022-12-28T06:05:50.564Z,29.70
2022-12-28T06:08:52.361Z,42.37
2022-12-28T06:11:54.009Z,75.33
2022-12-28T06:14:55.585Z,166.23
2022-12-28T06:17:57.148Z,77.70
2022-12-28T06:21:05.657Z,61.30
2022-12-28T06:24:07.731Z,90.67
2022-12-28T06:27:10.841Z,44.00
2022-12-28T06:30:12.942Z,36.77
2022-12-28T06:33:14.707Z,40.50
2022-12-28T06:36:20.247Z,41.60
2022-12-28T06:39:22.134Z,50.80
2022-12-28T06:42:23.737Z,49.03
2022-12-28T06:45:25.369Z,47.93
2022-12-28T06:48:27.043Z,54.03
2022-12-28T06:51:29.885Z,49.37
2022-12-28T06:54:31.588Z,48.57
2022-12-28T06:57:33.201Z,51.43
2022-12-28T07:00:34.769Z,53.57
2022-12-28T07:03:36.426Z,54.30
2022-12-28T07:06:40.189Z,49.23
2022-12-28T07:09:41.914Z,51.57
2022-12-28T07:12:43.443Z,46.33
2022-12-28T07:15:45.037Z,52.93
2022-12-28T07:18:46.942Z,59.67
2022-12-28T07:21:49.664Z,68.00
2022-12-28T07:24:51.496Z,60.33
2022-12-28T07:27:53.293Z,60.73
2022-12-28T07:30:54.984Z,140.47
2022-12-28T07:33:57.447Z,136.33
2022-12-28T07:36:59.129Z,72.33
2022-12-28T07:40:00.826Z,64.73
2022-12-28T07:43:02.487Z,61.53
2022-12-28T07:46:05.040Z,65.60
2022-12-28T07:49:07.035Z,65.17
2022-12-28T07:52:09.287Z,71.77
2022-12-28T07:55:11.015Z,43.50
2022-12-28T07:58:12.718Z,74.27
2022-12-28T08:01:15.118Z,100.07
2022-12-28T08:04:19.006Z,62.00
2022-12-28T08:07:20.685Z,52.23
2022-12-28T08:10:22.311Z,24.13
2022-12-28T08:13:23.911Z,21.37
2022-12-28T08:16:26.991Z,19.63
2022-12-28T08:19:28.710Z,21.67
2022-12-28T08:22:30.295Z,20.47
2022-12-28T08:25:31.857Z,15.23
2022-12-28T08:28:33.919Z,21.90
2022-12-28T08:31:37.657Z,34.23
2022-12-28T08:34:39.264Z,19.77
2022-12-28T08:37:40.945Z,13.97
2022-12-28T08:40:42.551Z,8.50
2022-12-28T08:43:44.299Z,38.47
2022-12-28T08:46:45.986Z,8.93
2022-12-28T08:49:48.747Z,9.47
2022-12-28T08:52:50.499Z,6.80
2022-12-28T08:55:52.121Z,10.63
2022-12-28T08:58:54.197Z,5.20
2022-12-28T09:01:55.850Z,8.43
2022-12-28T09:04:57.512Z,8.00
2022-12-28T09:07:59.849Z,11.40
2022-12-28T09:11:02.948Z,7.90
2022-12-28T09:14:05.399Z,6.27
2022-12-28T09:17:06.997Z,14.93
2022-12-28T09:20:08.832Z,9.70
2022-12-28T09:23:10.469Z,13.47
2022-12-28T09:26:16.193Z,9.23
2022-12-28T09:29:17.773Z,13.73
2022-12-28T09:32:21.160Z,8.87
2022-12-28T09:35:22.825Z,10.07
2022-12-28T09:38:24.423Z,10.63
2022-12-28T09:41:28.696Z,16.53
2022-12-28T09:44:45.769Z,12.43
2022-12-28T09:47:50.773Z,8.50
2022-12-28T09:50:53.142Z,11.17
2022-12-28T09:53:54.747Z,10.93
2022-12-28T09:56:56.659Z,17.73
2022-12-28T09:59:58.243Z,8.23
2022-12-28T10:03:04.190Z,15.17
2022-12-28T10:06:12.128Z,22.47
2022-12-28T10:09:19.679Z,16.70
2022-12-28T10:12:22.140Z,13.33
2022-12-28T10:15:24.880Z,13.57
2022-12-28T10:18:27.220Z,16.70
2022-12-28T10:21:33.112Z,30.77
2022-12-28T10:24:35.304Z,17.57
2022-12-28T10:27:36.903Z,21.33
2022-12-28T10:30:46.152Z,32.07
2022-12-28T10:33:53.764Z,15.67
2022-12-28T10:36:55.848Z,11.27
2022-12-28T10:39:59.392Z,18.77
2022-12-28T10:43:04.143Z,27.07
2022-12-28T10:46:17.947Z,44.17
2022-12-28T10:49:22.147Z,65.03
2022-12-28T10:52:23.800Z,41.03
2022-12-28T10:55:33.495Z,44.63
2022-12-28T10:58:35.289Z,25.03
2022-12-28T11:01:37.432Z,13.70
2022-12-28T11:04:51.810Z,9.17
2022-12-28T11:08:05.934Z,20.73
2022-12-28T11:11:12.375Z,12.27
2022-12-28T11:14:36.470Z,16.57
2022-12-28T11:17:38.081Z,16.07
2022-12-28T11:20:41.833Z,8.23
2022-12-28T11:23:43.889Z,10.27
2022-12-28T11:26:50.184Z,9.57
2022-12-28T11:29:52.956Z,9.90
2022-12-28T11:33:02.053Z,8.43
2022-12-28T11:36:09.705Z,6.97
2022-12-28T11:39:27.073Z,7.57
2022-12-28T11:42:41.790Z,7.23
2022-12-28T11:45:54.394Z,19.33
2022-12-28T11:49:00.070Z,12.23
2022-12-28T11:52:16.804Z,6.87
2022-12-28T11:55:30.469Z,9.43
2022-12-28T11:58:35.667Z,6.33
2022-12-28T12:01:40.956Z,7.43
2022-12-28T12:04:43.608Z,8.57
2022-12-28T12:07:46.893Z,9.30
2022-12-28T12:10:49.328Z,40.37
2022-12-28T12:13:51.564Z,14.50
2022-12-28T12:17:03.726Z,9.57
2022-12-28T12:20:07.629Z,17.97
2022-12-28T12:23:12.084Z,15.97
2022-12-28T12:26:16.680Z,7.47
2022-12-28T12:29:18.325Z,10.77
2022-12-28T12:32:24.156Z,8.33
2022-12-28T12:35:26.589Z,4.90
2022-12-28T12:38:46.684Z,10.73
2022-12-28T12:42:00.124Z,8.67
2022-12-28T12:45:15.515Z,6.20
2022-12-28T12:48:35.316Z,5.97
2022-12-28T12:51:36.827Z,5.03
2022-12-28T12:54:44.329Z,7.33
2022-12-28T12:58:02.288Z,6.50
2022-12-28T13:01:22.693Z,7.20
2022-12-28T13:04:26.366Z,9.60
2022-12-28T13:07:28.262Z,18.53
2022-12-28T13:10:32.309Z,14.97
2022-12-28T13:13:35.809Z,24.07
2022-12-28T13:16:37.489Z,14.67
2022-12-28T13:19:39.069Z,13.10
2022-12-28T13:22:45.308Z,13.10
2022-12-28T13:25:49.205Z,22.07
2022-12-28T13:28:58.546Z,18.10
2022-12-28T13:32:00.134Z,14.83
2022-12-28T13:35:02.006Z,16.33
2022-12-28T13:38:11.198Z,16.27
2022-12-28T13:41:18.271Z,18.47
2022-12-28T13:44:26.144Z,20.60
2022-12-28T13:47:33.388Z,14.60
2022-12-28T13:50:38.568Z,13.13
2022-12-28T13:53:43.684Z,21.27
2022-12-28T13:56:45.532Z,15.00
2022-12-28T13:59:47.795Z,12.47
2022-12-28T14:02:50.444Z,25.10
2022-12-28T14:06:00.186Z,32.40
2022-12-28T14:09:05.670Z,22.67
2022-12-28T14:12:08.122Z,26.00
2022-12-28T14:15:10.183Z,24.30
2022-12-28T14:18:15.204Z,28.67
2022-12-28T14:21:16.871Z,17.13
2022-12-28T14:24:18.454Z,18.57
2022-12-28T14:27:20.070Z,15.53
2022-12-28T14:30:27.420Z,33.20
2022-12-28T14:33:30.091Z,29.63
2022-12-28T14:36:41.947Z,25.60
2022-12-28T14:39:44.593Z,23.43
2022-12-28T14:42:48.948Z,29.03
2022-12-28T14:46:07.252Z,25.70
2022-12-28T14:49:28.367Z,32.80
2022-12-28T14:52:35.542Z,27.73
2022-12-28T14:55:41.780Z,42.03
2022-12-28T14:58:59.551Z,44.47
2022-12-28T15:02:01.341Z,38.73
2022-12-28T15:05:03.491Z,48.80
2022-12-28T15:08:05.854Z,42.73
2022-12-28T15:11:09.715Z,45.97
2022-12-28T15:14:11.481Z,74.27
2022-12-28T15:17:13.123Z,46.13
2022-12-28T15:20:15.401Z,57.17
2022-12-28T15:23:17.266Z,59.97
2022-12-28T15:26:19.517Z,60.07
2022-12-28T15:29:39.583Z,63.10
2022-12-28T15:32:42.918Z,71.47
2022-12-28T15:35:44.550Z,58.80
2022-12-28T15:38:46.924Z,47.93
2022-12-28T15:41:48.713Z,50.37
2022-12-28T15:44:53.032Z,48.13
2022-12-28T15:47:55.082Z,48.17
2022-12-28T15:50:56.677Z,45.57
2022-12-28T15:53:58.369Z,38.13
2022-12-28T15:56:59.936Z,42.37
2022-12-28T16:00:01.712Z,31.60
2022-12-28T16:03:06.478Z,38.97
2022-12-28T16:06:08.261Z,39.03
2022-12-28T16:09:10.478Z,43.43
2022-12-28T16:12:17.293Z,60.73
2022-12-28T16:15:19.136Z,54.10
2022-12-28T16:18:20.690Z,50.00
2022-12-28T16:21:22.294Z,56.93
2022-12-28T16:24:23.992Z,64.20
2022-12-28T16:27:25.626Z,66.37
2022-12-28T16:30:27.221Z,55.27
2022-12-28T16:33:28.949Z,82.07
2022-12-28T16:36:31.048Z,135.23
2022-12-28T16:39:32.777Z,83.40
2022-12-28T16:42:34.338Z,103.20
2022-12-28T16:45:36.967Z,141.10
2022-12-28T16:48:38.928Z,153.23
2022-12-28T16:51:41.666Z,88.70
2022-12-28T16:54:43.277Z,89.40
2022-12-28T16:57:44.929Z,112.10
2022-12-28T17:00:46.732Z,112.13
2022-12-28T17:03:48.389Z,84.57
2022-12-28T17:06:50.908Z,73.90
2022-12-28T17:09:52.563Z,59.87
2022-12-28T17:12:54.818Z,66.93
2022-12-28T17:15:59.718Z,64.50
2022-12-28T17:19:01.484Z,64.97
2022-12-28T17:22:04.213Z,76.37
2022-12-28T17:25:07.213Z,81.10
2022-12-28T17:28:09.631Z,83.90
2022-12-28T17:31:15.835Z,103.73
2022-12-28T17:34:19.495Z,97.80
2022-12-28T17:37:21.199Z,93.77
2022-12-28T17:40:22.900Z,114.23
2022-12-28T17:43:24.483Z,107.60
2022-12-28T17:46:27.161Z,519.77
2022-12-28T17:49:28.869Z,409.00
2022-12-28T17:52:30.606Z,143.90
2022-12-28T17:55:34.833Z,136.57
2022-12-28T17:58:36.604Z,212.87
2022-12-28T18:01:38.229Z,153.57
2022-12-28T18:04:40.350Z,112.27
2022-12-28T18:07:42.166Z,109.43
2022-12-28T18:10:44.138Z,112.23
2022-12-28T18:13:46.463Z,87.03
2022-12-28T18:16:48.371Z,91.40
2022-12-28T18:19:53.304Z,100.43
2022-12-28T18:22:58.615Z,102.43
2022-12-28T18:26:11.861Z,101.23
2022-12-28T18:29:13.537Z,84.80
2022-12-28T18:32:16.008Z,78.23
2022-12-28T18:35:18.697Z,66.17
2022-12-28T18:38:20.505Z,62.17
2022-12-28T18:41:22.428Z,80.70
2022-12-28T18:44:24.284Z,76.07
2022-12-28T18:47:26.005Z,74.77
2022-12-28T18:50:29.077Z,54.10
2022-12-28T18:53:31.036Z,75.77
2022-12-28T18:56:32.815Z,66.93
2022-12-28T18:59:34.467Z,65.63
2022-12-28T19:02:36.509Z,81.40
2022-12-28T19:05:38.368Z,93.53
2022-12-28T19:08:40.356Z,80.20
2022-12-28T19:11:42.181Z,69.37
2022-12-28T19:14:44.015Z,69.17
2022-12-28T19:17:45.718Z,68.53
2022-12-28T19:20:47.341Z,53.70
2022-12-28T19:23:52.818Z,46.83
2022-12-28T19:26:54.499Z,65.00
2022-12-28T19:29:56.149Z,61.87
2022-12-28T19:32:57.837Z,54.23
2022-12-28T19:35:59.516Z,55.47
2022-12-28T19:39:01.193Z,50.10
2022-12-28T19:42:02.960Z,55.57
2022-12-28T19:45:09.570Z,60.27
2022-12-28T19:48:11.788Z,55.53
2022-12-28T19:51:14.395Z,54.60
2022-12-28T19:54:16.055Z,52.73
2022-12-28T19:57:17.849Z,59.47
2022-12-28T20:00:19.633Z,53.53
2022-12-28T20:03:21.756Z,59.53
2022-12-28T20:06:27.787Z,61.80
2022-12-28T20:09:29.395Z,56.90
2022-12-28T20:12:31.074Z,55.17
2022-12-28T20:15:32.715Z,60.40
2022-12-28T20:18:34.387Z,63.20
2022-12-28T20:21:36.726Z,64.47
2022-12-28T20:24:38.402Z,58.80
2022-12-28T20:27:40.040Z,60.40
2022-12-28T20:30:41.775Z,51.67
2022-12-28T20:33:43.774Z,57.50
2022-12-28T20:36:45.447Z,66.47
2022-12-28T20:39:47.113Z,76.50
2022-12-28T20:43:07.439Z,73.27
2022-12-28T20:46:12.267Z,64.00
2022-12-28T20:49:14.040Z,74.60
2022-12-28T20:52:15.775Z,73.70
2022-12-28T20:55:17.301Z,74.70
2022-12-28T20:58:19.774Z,72.93
2022-12-28T21:01:21.569Z,80.13
2022-12-28T21:04:24.523Z,83.27
2022-12-28T21:07:26.516Z,88.23
2022-12-28T21:10:28.115Z,90.00
2022-12-28T21:13:29.771Z,83.43
2022-12-28T21:16:31.463Z,83.93
2022-12-28T21:19:33.168Z,93.53
2022-12-28T21:22:34.765Z,83.83
2022-12-28T21:25:36.580Z,97.93
2022-12-28T21:28:38.317Z,106.97
2022-12-28T21:31:40.054Z,120.07
2022-12-28T21:34:41.719Z,132.77
2022-12-28T21:37:43.295Z,126.43
2022-12-28T21:40:44.965Z,100.90
2022-12-28T21:43:46.535Z,127.50
2022-12-28T21:46:49.144Z,96.83
2022-12-28T21:49:50.750Z,76.50
2022-12-28T21:52:52.322Z,72.97
2022-12-28T21:55:53.957Z,76.87
2022-12-28T21:58:56.244Z,65.93
2022-12-28T22:02:16.707Z,64.57
2022-12-28T22:05:36.748Z,69.40
2022-12-28T22:08:57.077Z,64.83
2022-12-28T22:12:17.499Z,65.47
2022-12-28T22:15:38.799Z,67.53
2022-12-28T22:22:01.961Z,63.40
2022-12-28T22:25:03.645Z,65.80
2022-12-28T22:28:05.730Z,57.13
2022-12-28T22:31:07.993Z,61.63
2022-12-28T22:34:09.627Z,67.13
2022-12-28T22:37:13.829Z,75.53
2022-12-28T22:40:15.518Z,77.57
2022-12-28T22:43:17.072Z,112.77
2022-12-28T22:46:19.631Z,94.40
2022-12-28T22:49:21.369Z,81.70
2022-12-28T22:52:22.999Z,84.30
2022-12-28T22:55:24.659Z,60.40
2022-12-28T22:58:26.716Z,63.17
2022-12-28T23:01:28.359Z,61.50
2022-12-28T23:04:30.029Z,67.63
2022-12-28T23:07:31.802Z,73.20
2022-12-28T23:10:33.436Z,61.67
2022-12-28T23:13:35.092Z,61.23
2022-12-28T23:16:36.763Z,58.80
2022-12-28T23:19:57.238Z,63.90
2022-12-28T23:23:17.354Z,64.77
2022-12-28T23:26:37.764Z,56.00
2022-12-28T23:29:39.369Z,63.53
2022-12-28T23:32:40.982Z,59.27
2022-12-28T23:35:42.672Z,55.77
2022-12-28T23:38:44.338Z,57.70
2022-12-28T23:41:48.897Z,59.97
2022-12-28T23:44:50.497Z,59.40
2022-12-28T23:47:52.772Z,53.97
2022-12-28T23:51:08.117Z,56.77
2022-12-28T23:54:11.079Z,54.37
2022-12-28T23:57:12.777Z,66.63
